Time;durP1;ratioP1;P1;durP2;ratioP2;P2;SDS_P1;SDS_P2;PMS_P1;PMS_P2;Temp;Humidity;BMP_temperature;BMP_pressure;BME280_temperature;BME280_humidity;BME280_pressure;Samples;Min_cycle;Max_cycle;Signal;HPM_P1;HPM_P2
2022/10/06 00:00:52;;;;;;;5.57;4.37;;;15.60;99.90;;;;;;5033945;28;20465;-47
2022/10/06 00:03:21;;;;;;;5.47;4.33;;;15.50;99.90;;;;;;5033809;28;20732;-47
2022/10/06 00:05:49;;;;;;;6.30;5.13;;;15.50;99.90;;;;;;5034052;28;20513;-46
2022/10/06 00:08:17;;;;;;;4.30;3.80;;;15.50;99.90;;;;;;5034017;28;20518;-47
2022/10/06 00:10:44;;;;;;;5.77;4.10;;;15.50;99.90;;;;;;5033791;28;20558;-46
2022/10/06 00:13:10;;;;;;;6.13;5.00;;;15.50;99.90;;;;;;5033922;28;20439;-47
2022/10/06 00:15:37;;;;;;;10.83;4.73;;;15.50;99.90;;;;;;5034186;28;20450;-47
2022/10/06 00:18:04;;;;;;;6.20;4.00;;;15.50;99.90;;;;;;5034290;28;20434;-46
2022/10/06 00:20:31;;;;;;;5.17;4.67;;;15.50;99.90;;;;;;5033807;28;20986;-46
2022/10/06 00:23:00;;;;;;;5.60;4.80;;;15.80;99.90;;;;;;5033920;28;20437;-47
2022/10/06 00:25:27;;;;;;;5.77;4.50;;;15.50;99.90;;;;;;5033748;28;20443;-47
2022/10/06 00:27:55;;;;;;;7.30;4.30;;;15.70;99.90;;;;;;5034037;28;20478;-46
2022/10/06 00:30:23;;;;;;;5.00;4.30;;;15.50;99.90;;;;;;5033455;28;20471;-47
2022/10/06 00:32:52;;;;;;;5.00;4.17;;;15.50;99.90;;;;;;5033728;28;20471;-47
2022/10/06 00:35:19;;;;;;;7.77;3.80;;;15.50;99.90;;;;;;5015961;28;20439;-48
2022/10/06 00:37:47;;;;;;;4.83;4.27;;;15.50;99.90;;;;;;5015861;28;21026;-47
2022/10/06 00:40:15;;;;;;;4.20;3.77;;;15.50;99.90;;;;;;5033150;28;20447;-47
2022/10/06 00:42:51;;;;;;;4.20;3.80;;;15.50;99.90;;;;;;5033505;28;20469;-47
2022/10/06 00:45:23;;;;;;;4.60;4.07;;;15.60;99.90;;;;;;5033583;28;20429;-47
2022/10/06 00:47:50;;;;;;;4.63;4.07;;;15.80;99.90;;;;;;5033505;28;20444;-47
2022/10/06 00:50:16;;;;;;;5.30;4.70;;;15.60;99.90;;;;;;5015279;28;20475;-47
2022/10/06 00:52:43;;;;;;;8.40;4.27;;;15.70;99.90;;;;;;5032482;28;20472;-47
2022/10/06 00:55:10;;;;;;;5.20;4.23;;;16.00;99.90;;;;;;5033377;28;20445;-47
2022/10/06 00:57:40;;;;;;;6.00;4.13;;;15.70;99.90;;;;;;5032984;28;20432;-49
2022/10/06 01:00:09;;;;;;;5.53;3.93;;;15.80;99.90;;;;;;5032765;28;20473;-47
2022/10/06 01:02:40;;;;;;;3.90;3.50;;;15.90;99.90;;;;;;5015006;28;20453;-47
2022/10/06 01:05:10;;;;;;;4.57;4.00;;;15.90;99.90;;;;;;5033147;28;20448;-47
2022/10/06 01:07:37;;;;;;;5.63;3.90;;;16.00;99.90;;;;;;5015253;28;20445;-47
2022/10/06 01:10:04;;;;;;;4.97;4.47;;;16.00;99.90;;;;;;5032586;28;20452;-47
2022/10/06 01:12:33;;;;;;;4.70;3.90;;;16.10;99.90;;;;;;5033055;28;20478;-47
2022/10/06 01:15:01;;;;;;;11.10;4.57;;;16.10;99.90;;;;;;5032970;28;20428;-47
2022/10/06 01:17:33;;;;;;;5.77;4.07;;;15.80;99.90;;;;;;5033031;28;20443;-47
2022/10/06 01:20:04;;;;;;;4.30;3.90;;;16.10;99.90;;;;;;5032439;28;20547;-48
2022/10/06 01:22:34;;;;;;;4.70;3.80;;;15.90;99.90;;;;;;5032968;28;20521;-48
2022/10/06 01:25:02;;;;;;;5.10;4.47;;;16.30;99.90;;;;;;5014984;28;20446;-48
2022/10/06 01:27:30;;;;;;;4.77;4.37;;;16.40;99.90;;;;;;5032669;28;20443;-48
2022/10/06 01:29:58;;;;;;;5.43;4.30;;;16.20;99.90;;;;;;5032137;28;20566;-48
2022/10/06 01:32:27;;;;;;;7.10;5.03;;;16.10;99.90;;;;;;5014828;28;20529;-48
2022/10/06 01:34:53;;;;;;;4.93;4.43;;;16.30;99.90;;;;;;5014829;28;20411;-48
2022/10/06 01:37:21;;;;;;;5.13;4.20;;;16.10;99.90;;;;;;5014821;28;20547;-48
2022/10/06 01:39:49;;;;;;;6.40;4.43;;;16.20;99.90;;;;;;5032085;28;20445;-48
2022/10/06 01:42:16;;;;;;;5.00;4.30;;;16.20;99.90;;;;;;5032412;28;20774;-46
2022/10/06 01:44:42;;;;;;;5.23;3.90;;;16.10;99.90;;;;;;5032505;28;20525;-46
2022/10/06 01:50:57;;;;;;;7.60;4.33;;;16.00;99.90;;;;;;5032041;28;20425;-47
2022/10/06 01:53:24;;;;;;;5.20;3.80;;;15.70;99.90;;;;;;5014438;28;20455;-47
2022/10/06 01:55:56;;;;;;;6.50;4.00;;;15.90;99.90;;;;;;5014465;28;20510;-47
2022/10/06 01:58:25;;;;;;;7.03;4.03;;;15.90;99.90;;;;;;5014323;28;20469;-47
2022/10/06 02:00:53;;;;;;;5.20;4.10;;;15.40;99.90;;;;;;5014297;28;20476;-47
2022/10/06 02:03:19;;;;;;;5.53;3.83;;;15.90;99.90;;;;;;5032705;28;20432;-46
2022/10/06 02:05:46;;;;;;;5.27;4.07;;;15.90;99.90;;;;;;5032019;28;20437;-46
2022/10/06 02:08:13;;;;;;;4.13;3.70;;;15.80;99.90;;;;;;5015279;28;20458;-47
2022/10/06 02:10:40;;;;;;;4.27;3.83;;;15.80;99.90;;;;;;5014172;28;20983;-46
2022/10/06 02:13:15;;;;;;;5.17;4.33;;;15.90;99.90;;;;;;5032031;28;20488;-46
2022/10/06 02:15:42;;;;;;;3.80;3.17;;;15.90;99.90;;;;;;5031862;28;20794;-47
2022/10/06 02:18:09;;;;;;;4.97;4.40;;;15.80;99.90;;;;;;5032156;28;20439;-46
2022/10/06 02:20:36;;;;;;;5.50;4.10;;;15.80;99.90;;;;;;5031696;28;20464;-47
2022/10/06 02:23:02;;;;;;;4.90;4.07;;;16.00;99.90;;;;;;5032004;28;20471;-46
2022/10/06 02:25:29;;;;;;;5.60;4.70;;;15.70;99.90;;;;;;5013926;28;20447;-47
2022/10/06 02:27:56;;;;;;;5.30;4.43;;;15.60;99.90;;;;;;5014033;28;20451;-47
2022/10/06 02:30:24;;;;;;;4.53;4.13;;;15.60;99.90;;;;;;5013364;28;20537;-46
2022/10/06 02:32:52;;;;;;;4.93;4.53;;;15.70;99.90;;;;;;5013766;28;20485;-46
2022/10/06 02:35:19;;;;;;;4.60;3.97;;;15.70;99.90;;;;;;5013547;28;20448;-46
2022/10/06 02:37:46;;;;;;;4.90;4.40;;;16.00;99.90;;;;;;5031579;28;20952;-46
2022/10/06 02:40:16;;;;;;;5.40;3.70;;;15.20;99.90;;;;;;5013272;28;20471;-47
2022/10/06 02:42:44;;;;;;;9.10;4.30;;;15.70;99.90;;;;;;5013783;28;20487;-48
2022/10/06 02:45:13;;;;;;;9.33;4.93;;;15.50;99.90;;;;;;5013576;28;20426;-47
2022/10/06 02:47:41;;;;;;;5.93;4.83;;;15.70;99.90;;;;;;5013799;28;20447;-47
2022/10/06 02:50:09;;;;;;;5.33;4.70;;;15.80;99.90;;;;;;5013256;28;20471;-47
2022/10/06 02:52:39;;;;;;;9.97;4.70;;;15.70;99.90;;;;;;5013533;28;20471;-47
2022/10/06 02:55:08;;;;;;;5.37;4.87;;;15.30;99.90;;;;;;5031801;28;20531;-48
2022/10/06 02:57:34;;;;;;;6.03;4.60;;;15.80;99.90;;;;;;5031112;28;20489;-47
2022/10/06 03:00:01;;;;;;;16.80;4.67;;;16.30;99.90;;;;;;5013063;28;20459;-47
2022/10/06 03:02:31;;;;;;;5.30;4.50;;;15.80;99.90;;;;;;5013509;28;20546;-46
2022/10/06 03:04:59;;;;;;;5.63;4.67;;;16.00;99.90;;;;;;5013894;28;20451;-47
2022/10/06 03:07:27;;;;;;;9.40;5.17;;;16.00;99.90;;;;;;5013573;28;20454;-47
2022/10/06 03:09:54;;;;;;;5.47;4.77;;;16.00;99.90;;;;;;5030736;28;20453;-47
2022/10/06 03:12:23;;;;;;;4.50;4.10;;;15.70;99.90;;;;;;5013260;28;20618;-47
2022/10/06 03:14:49;;;;;;;4.90;4.40;;;15.90;99.90;;;;;;5031267;28;20444;-47
2022/10/06 03:17:16;;;;;;;5.77;4.30;;;16.00;99.90;;;;;;5016084;28;20468;-47
2022/10/06 03:19:49;;;;;;;6.70;4.93;;;16.10;99.90;;;;;;5016994;28;20469;-48
2022/10/06 03:22:17;;;;;;;5.90;4.23;;;16.20;99.90;;;;;;5017134;28;20821;-48
2022/10/06 03:24:50;;;;;;;5.13;4.73;;;16.10;99.90;;;;;;5017324;28;20449;-47
2022/10/06 03:27:16;;;;;;;5.60;4.17;;;16.40;99.90;;;;;;5034894;28;20891;-48
2022/10/06 03:29:44;;;;;;;7.40;4.20;;;16.20;99.90;;;;;;5016793;28;21053;-47
2022/10/06 03:32:11;;;;;;;6.97;4.00;;;16.20;99.90;;;;;;5017255;28;20509;-47
2022/10/06 03:34:38;;;;;;;8.33;4.50;;;16.30;99.90;;;;;;5017379;28;20452;-47
2022/10/06 03:37:08;;;;;;;5.70;4.40;;;16.20;99.90;;;;;;5016982;28;20481;-47
2022/10/06 03:39:36;;;;;;;5.17;4.23;;;16.40;99.90;;;;;;5034708;28;20450;-47
2022/10/06 03:42:02;;;;;;;9.53;4.23;;;16.40;99.90;;;;;;5034829;28;20438;-47
2022/10/06 03:44:31;;;;;;;5.23;4.77;;;16.30;99.90;;;;;;5017072;28;20443;-47
2022/10/06 03:46:57;;;;;;;5.70;4.10;;;16.30;99.90;;;;;;5017442;28;20464;-47
2022/10/06 03:49:24;;;;;;;5.47;3.90;;;16.00;99.90;;;;;;5016695;28;20454;-47
2022/10/06 03:51:53;;;;;;;4.47;4.07;;;16.30;99.90;;;;;;5017142;28;20579;-46
2022/10/06 03:54:24;;;;;;;4.50;4.10;;;16.40;99.90;;;;;;5017516;28;20536;-47
2022/10/06 03:56:54;;;;;;;3.80;3.50;;;16.40;99.90;;;;;;5017208;28;20461;-47
2022/10/06 03:59:21;;;;;;;4.07;3.63;;;16.40;99.90;;;;;;5016832;28;20518;-46
2022/10/06 04:01:51;;;;;;;6.47;3.90;;;16.40;99.90;;;;;;5017308;28;20448;-48
2022/10/06 04:04:23;;;;;;;6.10;4.10;;;16.40;99.90;;;;;;5035054;28;20424;-47
2022/10/06 04:06:54;;;;;;;5.17;3.77;;;16.80;99.90;;;;;;5017055;28;20444;-47
2022/10/06 04:09:21;;;;;;;4.47;3.37;;;16.40;99.90;;;;;;5016753;28;20448;-47
2022/10/06 04:11:48;;;;;;;4.67;3.70;;;16.50;99.90;;;;;;5016870;28;20441;-47
2022/10/06 04:14:16;;;;;;;7.50;4.00;;;16.50;99.90;;;;;;5017254;28;20454;-46
2022/10/06 04:16:47;;;;;;;5.13;3.77;;;16.50;99.90;;;;;;5017056;28;20874;-46
2022/10/06 04:19:17;;;;;;;4.10;3.10;;;16.40;99.90;;;;;;5016843;28;20440;-47
2022/10/06 04:21:50;;;;;;;5.40;3.50;;;16.50;99.90;;;;;;5034309;28;20432;-47
2022/10/06 04:24:20;;;;;;;5.00;2.87;;;16.50;99.90;;;;;;5016671;28;20457;-47
2022/10/06 04:26:48;;;;;;;3.90;2.90;;;16.40;99.90;;;;;;5016250;28;20456;-48
2022/10/06 04:29:17;;;;;;;3.30;2.60;;;16.50;99.90;;;;;;5015138;28;20456;-47
2022/10/06 04:31:47;;;;;;;2.60;2.23;;;16.50;99.90;;;;;;5039254;23;20500;-49
2022/10/06 04:34:21;;;;;;;4.93;2.33;;;16.00;99.90;;;;;;5016228;28;20534;-48
2022/10/06 04:36:48;;;;;;;4.27;2.07;;;16.50;99.90;;;;;;5016294;28;20458;-49
2022/10/06 04:39:17;;;;;;;4.03;2.33;;;16.50;99.90;;;;;;5016030;28;20449;-48
2022/10/06 04:41:46;;;;;;;4.10;2.03;;;16.50;99.90;;;;;;5033675;28;20507;-49
2022/10/06 04:44:13;;;;;;;2.27;1.40;;;16.50;99.90;;;;;;5016076;28;20482;-49
2022/10/06 04:46:42;;;;;;;2.40;1.40;;;16.80;99.90;;;;;;5015883;28;20491;-48
2022/10/06 04:49:09;;;;;;;2.03;1.30;;;16.60;99.90;;;;;;5015585;28;20996;-49
2022/10/06 04:51:36;;;;;;;1.63;1.40;;;16.60;99.90;;;;;;5033706;28;20534;-49
2022/10/06 04:54:03;;;;;;;2.60;1.43;;;16.60;99.90;;;;;;5015910;28;20491;-49
2022/10/06 04:56:33;;;;;;;2.20;1.17;;;16.50;99.90;;;;;;5015889;28;20456;-48
2022/10/06 04:59:03;;;;;;;3.00;1.43;;;16.50;99.90;;;;;;5015479;28;21195;-48
2022/10/06 05:01:34;;;;;;;7.27;1.80;;;16.50;99.90;;;;;;5015752;28;20554;-48
2022/10/06 05:04:06;;;;;;;3.50;1.23;;;16.50;99.90;;;;;;5015946;28;20451;-48
2022/10/06 05:06:36;;;;;;;3.57;1.70;;;16.50;99.90;;;;;;5015537;28;20444;-48
2022/10/06 05:09:05;;;;;;;2.30;1.50;;;16.50;99.90;;;;;;5015100;28;20448;-48
2022/10/06 05:11:33;;;;;;;3.43;1.83;;;16.50;99.90;;;;;;5015810;28;20917;-48
2022/10/06 05:14:01;;;;;;;3.83;1.43;;;16.50;99.90;;;;;;5015690;28;20594;-48
2022/10/06 05:16:31;;;;;;;3.83;1.30;;;16.50;99.90;;;;;;5015199;28;20872;-49
2022/10/06 05:18:59;;;;;;;3.50;1.90;;;16.50;99.90;;;;;;5015218;28;20453;-48
2022/10/06 05:21:28;;;;;;;4.50;1.40;;;16.50;99.90;;;;;;5014997;28;20476;-48
2022/10/06 05:23:57;;;;;;;5.00;1.20;;;16.50;99.90;;;;;;5014975;28;20822;-48
2022/10/06 05:26:26;;;;;;;3.30;1.30;;;16.50;99.90;;;;;;5014666;28;20454;-48
2022/10/06 05:28:54;;;;;;;7.70;1.60;;;16.50;99.90;;;;;;5014328;28;20461;-48
2022/10/06 05:31:23;;;;;;;6.13;1.40;;;16.60;99.90;;;;;;5014604;28;20527;-48
2022/10/06 05:33:50;;;;;;;2.30;1.13;;;16.50;99.90;;;;;;5014927;28;20480;-48
2022/10/06 05:36:18;;;;;;;4.27;1.37;;;16.40;99.90;;;;;;5014839;28;20948;-48
2022/10/06 05:38:47;;;;;;;2.33;1.20;;;16.40;99.90;;;;;;5013982;28;20728;-48
2022/10/06 05:41:16;;;;;;;5.80;1.43;;;16.40;99.90;;;;;;5015114;28;20468;-48
2022/10/06 05:43:45;;;;;;;6.83;1.37;;;16.40;99.90;;;;;;5014947;28;20444;-49
2022/10/06 05:46:16;;;;;;;2.40;1.20;;;16.20;99.90;;;;;;5014125;28;20451;-49
2022/10/06 05:48:45;;;;;;;3.23;2.20;;;16.30;99.90;;;;;;5014315;28;20548;-48
2022/10/06 05:51:13;;;;;;;6.90;3.37;;;16.50;99.90;;;;;;5013749;28;20512;-49
2022/10/06 05:53:39;;;;;;;4.27;2.20;;;16.00;99.90;;;;;;5031416;28;20493;-49
2022/10/06 05:56:09;;;;;;;3.70;1.73;;;16.00;99.90;;;;;;5031892;28;20533;-49
2022/10/06 05:58:38;;;;;;;3.40;1.53;;;16.20;99.90;;;;;;5031547;28;20453;-49
2022/10/06 06:01:09;;;;;;;4.00;1.50;;;16.30;99.90;;;;;;5014570;28;20824;-49
2022/10/06 06:03:37;;;;;;;3.50;1.30;;;16.00;99.90;;;;;;5013854;28;20957;-49
2022/10/06 06:06:14;;;;;;;2.10;1.03;;;16.00;99.90;;;;;;5014085;28;20439;-49
2022/10/06 06:08:40;;;;;;;6.80;1.10;;;16.00;99.90;;;;;;5014015;28;20858;-49
2022/10/06 06:11:09;;;;;;;2.77;1.60;;;16.20;99.90;;;;;;5014214;28;20463;-49
2022/10/06 06:13:36;;;;;;;4.80;1.93;;;16.00;99.90;;;;;;5013737;28;20950;-49
2022/10/06 06:16:12;;;;;;;4.40;1.40;;;15.80;99.90;;;;;;5031780;28;20526;-49
2022/10/06 06:18:39;;;;;;;11.50;2.00;;;16.20;99.90;;;;;;5014014;28;20528;-49
2022/10/06 06:21:09;;;;;;;6.10;1.43;;;16.00;99.90;;;;;;5014395;28;21053;-50
2022/10/06 06:23:38;;;;;;;5.07;1.43;;;16.00;99.90;;;;;;5014448;28;20447;-49
2022/10/06 06:26:07;;;;;;;1.87;0.93;;;16.10;99.90;;;;;;5013992;28;20450;-49
2022/10/06 06:28:39;;;;;;;3.70;1.77;;;16.00;99.90;;;;;;5013377;28;20984;-49
2022/10/06 06:31:08;;;;;;;3.43;1.00;;;16.10;99.90;;;;;;5013560;28;20480;-48
2022/10/06 06:33:36;;;;;;;2.90;1.13;;;15.80;99.90;;;;;;5014258;28;20475;-49
2022/10/06 06:36:03;;;;;;;3.87;1.50;;;16.20;99.90;;;;;;5014043;28;20467;-49
2022/10/06 06:38:31;;;;;;;4.67;1.50;;;16.20;99.90;;;;;;5031321;28;20442;-48
2022/10/06 06:40:58;;;;;;;1.63;0.83;;;16.10;99.90;;;;;;5013871;28;20884;-49
2022/10/06 06:43:25;;;;;;;2.90;1.33;;;16.20;99.90;;;;;;5013900;28;20492;-49
2022/10/06 06:46:13;;;;;;;3.87;1.63;;;16.60;99.90;;;;;;5032331;28;20435;-49
2022/10/06 06:48:57;;;;;;;5.77;1.93;;;16.20;99.90;;;;;;5013981;28;20447;-49
2022/10/06 06:51:24;;;;;;;7.37;1.80;;;16.20;99.90;;;;;;5014939;28;20571;-48
2022/10/06 06:53:52;;;;;;;7.10;2.60;;;16.20;99.90;;;;;;5017639;28;20494;-48
2022/10/06 06:56:21;;;;;;;1.60;1.07;;;16.10;99.90;;;;;;5017456;28;21231;-48
2022/10/06 06:58:48;;;;;;;4.97;1.57;;;16.20;99.90;;;;;;5016543;28;20460;-48
2022/10/06 07:01:19;;;;;;;4.27;1.20;;;16.40;99.90;;;;;;5017302;28;21039;-48
2022/10/06 07:03:50;;;;;;;6.80;1.97;;;16.20;99.90;;;;;;5017161;28;20974;-48
2022/10/06 07:06:17;;;;;;;6.03;1.20;;;16.10;99.90;;;;;;5035035;28;20869;-48
2022/10/06 07:08:47;;;;;;;3.30;1.40;;;16.20;99.90;;;;;;5016940;28;20852;-49
2022/10/06 07:11:16;;;;;;;4.23;1.30;;;16.40;99.90;;;;;;5017047;28;20477;-49
2022/10/06 07:13:44;;;;;;;2.80;1.50;;;16.10;99.90;;;;;;5034963;28;20496;-48
2022/10/06 07:27:13;;;;;;;7.87;2.47;;;16.20;99.90;;;;;;5016996;28;20966;-49
2022/10/06 07:29:40;;;;;;;5.07;1.47;;;15.60;99.90;;;;;;5015652;28;20454;-49
2022/10/06 07:32:06;;;;;;;9.87;3.90;;;16.50;99.90;;;;;;5033602;28;20425;-50
2022/10/06 07:34:36;;;;;;;4.93;1.80;;;16.30;99.90;;;;;;5015338;28;20945;-48
2022/10/06 07:37:03;;;;;;;4.63;1.67;;;16.40;99.90;;;;;;5016250;28;20443;-49
2022/10/06 07:39:31;;;;;;;4.17;2.00;;;16.20;99.90;;;;;;5015626;28;20452;-49
2022/10/06 07:41:58;;;;;;;6.10;1.70;;;16.20;99.90;;;;;;5016180;28;20993;-49
2022/10/06 07:44:24;;;;;;;5.13;1.70;;;16.30;99.90;;;;;;5016422;28;20483;-49
2022/10/06 07:46:51;;;;;;;4.80;1.43;;;16.40;99.90;;;;;;5016354;28;20535;-48
2022/10/06 07:49:26;;;;;;;6.03;1.60;;;16.40;99.90;;;;;;5016305;28;20445;-49
2022/10/06 07:51:54;;;;;;;4.70;1.23;;;16.60;99.90;;;;;;5016414;28;21141;-49
2022/10/06 07:54:21;;;;;;;12.27;3.47;;;16.70;99.90;;;;;;5016442;28;20578;-48
2022/10/06 07:57:03;;;;;;;4.23;1.83;;;16.80;99.90;;;;;;5016418;28;20449;-48
2022/10/06 07:59:29;;;;;;;3.57;1.37;;;16.80;99.90;;;;;;5033895;28;20437;-49
2022/10/06 08:01:56;;;;;;;2.23;1.30;;;17.00;99.90;;;;;;5034271;28;20464;-48
2022/10/06 08:04:22;;;;;;;5.67;1.10;;;16.80;99.90;;;;;;5034270;28;20441;-49
2022/10/06 08:06:49;;;;;;;8.00;1.53;;;16.90;99.90;;;;;;5034102;28;20460;-48
2022/10/06 08:09:17;;;;;;;4.37;1.20;;;16.70;99.90;;;;;;5033974;28;20439;-49
2022/10/06 08:11:46;;;;;;;6.77;2.00;;;16.60;99.90;;;;;;5033795;28;20457;-48
2022/10/06 08:14:13;;;;;;;9.27;2.20;;;16.80;99.90;;;;;;5033809;28;21032;-49
2022/10/06 08:16:40;;;;;;;4.47;1.43;;;16.70;99.90;;;;;;5034211;28;20455;-48
2022/10/06 08:19:07;;;;;;;8.07;2.20;;;16.70;99.90;;;;;;5033563;28;20442;-49
2022/10/06 08:21:34;;;;;;;8.73;1.93;;;16.40;99.90;;;;;;5033678;28;20476;-49
2022/10/06 08:24:01;;;;;;;7.23;1.73;;;16.40;99.90;;;;;;5015816;28;20477;-48
2022/10/06 08:26:32;;;;;;;7.67;2.10;;;16.70;99.90;;;;;;5034017;28;20434;-49
2022/10/06 08:29:01;;;;;;;4.50;1.63;;;16.60;99.90;;;;;;5033350;28;20454;-48
2022/10/06 08:31:27;;;;;;;5.83;1.67;;;16.90;99.90;;;;;;5033598;28;20484;-49
2022/10/06 08:33:55;;;;;;;5.27;1.60;;;16.70;99.90;;;;;;5033572;28;20475;-49
2022/10/06 08:36:25;;;;;;;5.23;1.40;;;16.60;99.90;;;;;;5033478;28;20468;-48
2022/10/06 08:38:53;;;;;;;5.07;1.73;;;16.80;99.90;;;;;;5033151;28;20814;-48
2022/10/06 08:41:22;;;;;;;8.47;2.20;;;16.80;99.90;;;;;;5033111;28;20464;-48
2022/10/06 08:43:55;;;;;;;7.90;1.83;;;17.00;99.90;;;;;;5033724;28;20848;-48
2022/10/06 08:46:25;;;;;;;5.07;1.27;;;16.80;99.90;;;;;;5033547;28;20552;-49
2022/10/06 08:48:51;;;;;;;4.67;1.40;;;17.10;99.90;;;;;;5033321;28;20440;-50
2022/10/06 08:51:34;;;;;;;7.90;1.70;;;17.10;99.90;;;;;;5033318;28;20768;-49
2022/10/06 08:54:08;;;;;;;5.60;2.00;;;17.40;99.70;;;;;;5033109;28;20951;-49
2022/10/06 08:56:43;;;;;;;6.43;2.10;;;17.30;99.40;;;;;;5033493;28;20487;-49
2022/10/06 08:59:12;;;;;;;6.10;1.93;;;17.40;99.30;;;;;;5033185;28;20445;-49
2022/10/06 09:01:44;;;;;;;10.13;2.17;;;17.10;98.90;;;;;;5033178;28;20954;-50
2022/10/06 09:04:21;;;;;;;4.80;1.60;;;17.70;98.60;;;;;;5033451;28;20484;-49
2022/10/06 09:06:58;;;;;;;6.37;1.90;;;17.60;98.70;;;;;;5033372;28;20450;-49
2022/10/06 09:09:42;;;;;;;7.30;1.80;;;17.60;98.60;;;;;;5032774;28;20438;-49
2022/10/06 09:12:16;;;;;;;5.73;1.73;;;17.20;98.60;;;;;;5032976;28;20438;-48
2022/10/06 09:14:48;;;;;;;7.23;1.53;;;17.40;98.20;;;;;;5032313;28;20479;-49
2022/10/06 09:17:20;;;;;;;6.20;2.17;;;17.40;98.10;;;;;;5032759;28;20957;-48
2022/10/06 09:19:53;;;;;;;8.37;2.00;;;17.20;97.90;;;;;;5032082;28;20445;-49
2022/10/06 09:22:22;;;;;;;7.20;1.80;;;17.20;97.90;;;;;;5032961;28;20429;-49
2022/10/06 09:24:54;;;;;;;3.00;1.77;;;17.10;97.70;;;;;;5032464;28;20925;-49
2022/10/06 09:27:23;;;;;;;11.77;2.00;;;17.30;97.40;;;;;;5014609;28;20507;-49
2022/10/06 09:29:51;;;;;;;10.70;2.73;;;16.60;97.00;;;;;;5014024;28;20512;-48
2022/10/06 09:32:20;;;;;;;4.23;1.90;;;17.60;97.30;;;;;;5032392;28;20612;-47
2022/10/06 09:34:51;;;;;;;7.70;1.80;;;17.10;97.10;;;;;;5032566;28;20590;-49
2022/10/06 09:37:18;;;;;;;14.47;2.03;;;17.30;97.00;;;;;;5032607;28;20445;-49
2022/10/06 09:39:48;;;;;;;8.00;2.20;;;17.00;96.90;;;;;;5032191;28;20545;-48
2022/10/06 09:42:19;;;;;;;7.50;1.93;;;17.00;97.00;;;;;;5032796;28;20567;-48
2022/10/06 09:44:57;;;;;;;13.53;7.77;;;16.90;97.20;;;;;;5032111;28;20441;-49
2022/10/06 09:47:34;;;;;;;6.03;2.20;;;17.00;97.40;;;;;;5032333;28;20463;-48
2022/10/06 09:50:20;;;;;;;7.53;1.83;;;17.00;97.60;;;;;;5031833;28;20963;-48
2022/10/06 09:53:17;;;;;;;9.10;1.97;;;17.00;97.30;;;;;;5031784;28;20429;-48
2022/10/06 09:55:50;;;;;;;5.73;3.10;;;17.10;96.90;;;;;;4997674;28;20849;-48
2022/10/06 09:58:21;;;;;;;8.00;2.67;;;17.30;97.10;;;;;;5031168;28;20452;-47
2022/10/06 10:00:53;;;;;;;5.83;1.90;;;17.40;96.80;;;;;;5014159;28;20473;-48
2022/10/06 10:03:21;;;;;;;6.40;1.70;;;17.70;96.10;;;;;;5032305;28;20446;-49
2022/10/06 10:05:50;;;;;;;11.80;2.53;;;17.30;95.50;;;;;;5032149;28;20792;-48
2022/10/06 10:08:22;;;;;;;7.40;1.90;;;17.40;95.10;;;;;;5030712;28;20886;-48
2022/10/06 10:10:50;;;;;;;6.50;2.30;;;17.50;94.00;;;;;;5031402;28;20223;-48
2022/10/06 10:13:21;;;;;;;9.33;2.53;;;18.30;94.70;;;;;;5032464;28;20884;-48
2022/10/06 10:15:55;;;;;;;6.10;2.40;;;17.50;94.20;;;;;;5031807;28;20492;-49
2022/10/06 10:18:26;;;;;;;8.87;2.00;;;17.50;94.40;;;;;;5031557;28;20438;-48
2022/10/06 10:20:56;;;;;;;4.17;2.07;;;17.50;94.60;;;;;;5031634;28;20500;-49
2022/10/06 10:23:25;;;;;;;10.57;2.33;;;17.50;94.70;;;;;;5031424;28;20445;-50
2022/10/06 10:26:01;;;;;;;6.23;2.10;;;17.30;94.70;;;;;;5030874;28;20892;-49
2022/10/06 10:28:50;;;;;;;7.40;2.43;;;17.50;94.70;;;;;;5031478;28;20435;-48
2022/10/06 10:31:30;;;;;;;7.20;2.07;;;17.50;94.50;;;;;;5053136;23;20528;-48
2022/10/06 10:34:06;;;;;;;4.70;2.37;;;17.80;94.80;;;;;;5031424;28;20575;-46
2022/10/06 10:36:37;;;;;;;5.10;1.53;;;18.00;94.80;;;;;;5031618;28;20434;-47
2022/10/06 10:39:10;;;;;;;5.03;1.53;;;17.50;94.00;;;;;;5029573;28;20607;-45
2022/10/06 10:41:42;;;;;;;6.10;1.83;;;17.40;93.50;;;;;;5031140;28;20500;-47
2022/10/06 10:44:11;;;;;;;9.27;4.73;;;17.40;93.70;;;;;;5031825;28;20945;-45
2022/10/06 10:46:44;;;;;;;8.80;2.27;;;17.50;93.90;;;;;;5031514;28;20485;-47
2022/10/06 10:49:17;;;;;;;4.53;2.37;;;17.40;93.70;;;;;;5031041;28;20442;-45
2022/10/06 10:51:49;;;;;;;3.70;2.27;;;17.50;93.90;;;;;;5030058;28;20474;-45
2022/10/06 10:54:23;;;;;;;7.37;2.30;;;17.60;93.90;;;;;;5031039;28;20510;-46
2022/10/06 10:56:51;;;;;;;6.00;1.90;;;17.60;93.80;;;;;;5031201;28;20441;-46
2022/10/06 10:59:25;;;;;;;6.77;2.13;;;17.40;93.20;;;;;;5029951;28;20462;-46
2022/10/06 11:01:57;;;;;;;7.07;1.83;;;17.30;92.90;;;;;;5031522;28;20454;-46
2022/10/06 11:04:24;;;;;;;8.13;2.37;;;17.60;92.90;;;;;;5030922;28;20888;-45
2022/10/06 11:07:13;;;;;;;7.77;2.30;;;17.80;93.10;;;;;;5031122;28;20446;-46
2022/10/06 11:09:52;;;;;;;3.50;1.90;;;17.50;92.30;;;;;;5030775;28;20453;-46
2022/10/06 11:12:32;;;;;;;8.37;2.23;;;17.90;92.50;;;;;;5030858;28;20466;-45
2022/10/06 11:15:03;;;;;;;10.77;2.07;;;18.10;92.40;;;;;;5030095;28;20482;-46
2022/10/06 11:17:50;;;;;;;4.40;1.90;;;18.10;92.40;;;;;;5032001;28;20449;-46
2022/10/06 11:20:31;;;;;;;6.60;2.17;;;18.20;92.00;;;;;;5031153;28;20435;-46
2022/10/06 11:23:17;;;;;;;8.00;2.80;;;18.10;91.80;;;;;;5031580;28;20833;-46
2022/10/06 11:25:49;;;;;;;6.30;1.60;;;18.20;92.00;;;;;;5030939;28;20457;-46
2022/10/06 11:28:20;;;;;;;7.70;3.33;;;18.10;91.80;;;;;;5031812;28;20443;-47
2022/10/06 11:30:58;;;;;;;10.53;2.03;;;18.10;92.10;;;;;;5030284;28;20482;-45
2022/10/06 11:33:31;;;;;;;6.53;2.20;;;18.10;91.80;;;;;;5029335;28;20900;-46
2022/10/06 11:36:00;;;;;;;8.50;5.33;;;17.80;91.70;;;;;;5031314;28;20556;-45
2022/10/06 11:38:34;;;;;;;6.00;2.00;;;17.90;91.80;;;;;;5034511;28;20443;-48
2022/10/06 11:41:08;;;;;;;7.03;2.07;;;18.30;92.00;;;;;;5034349;28;20943;-46
2022/10/06 11:43:45;;;;;;;8.50;4.20;;;18.20;92.10;;;;;;5034575;28;20470;-46
2022/10/06 11:46:27;;;;;;;7.17;1.77;;;18.30;92.10;;;;;;5035050;28;20976;-46
2022/10/06 11:49:34;;;;;;;7.97;2.10;;;18.30;92.20;;;;;;5034336;28;20617;-46
2022/10/06 11:52:54;;;;;;;5.43;1.90;;;18.30;91.80;;;;;;5034776;28;20478;-48
2022/10/06 11:55:25;;;;;;;8.43;2.03;;;18.10;90.60;;;;;;5034257;28;20496;-45
2022/10/06 11:58:10;;;;;;;7.73;2.30;;;18.00;90.60;;;;;;5034491;28;20439;-46
2022/10/06 12:00:43;;;;;;;5.47;2.40;;;18.10;90.60;;;;;;5032127;28;21014;-46
2022/10/06 12:03:53;;;;;;;5.77;2.13;;;18.10;90.80;;;;;;5034701;28;20439;-45
2022/10/06 12:06:54;;;;;;;7.90;3.17;;;18.20;90.90;;;;;;5034846;28;20820;-46
2022/10/06 12:09:27;;;;;;;7.20;2.03;;;18.10;90.70;;;;;;5033869;28;20464;-48
2022/10/06 12:11:56;;;;;;;8.93;2.10;;;18.10;91.20;;;;;;5034978;28;20470;-47
2022/10/06 12:14:33;;;;;;;4.63;2.13;;;18.10;90.90;;;;;;5033817;28;20534;-46
2022/10/06 12:17:06;;;;;;;10.27;2.57;;;17.90;90.80;;;;;;5033978;28;20438;-46
2022/10/06 12:19:52;;;;;;;5.17;2.20;;;18.10;90.80;;;;;;5033703;28;20446;-46
2022/10/06 12:22:26;;;;;;;7.60;2.00;;;18.40;90.90;;;;;;5033915;28;20530;-45
2022/10/06 12:25:01;;;;;;;15.40;10.00;;;18.40;90.90;;;;;;5034083;28;20442;-45
2022/10/06 12:27:47;;;;;;;8.23;1.90;;;18.00;90.70;;;;;;5033621;28;20438;-48
2022/10/06 12:30:21;;;;;;;4.73;1.53;;;18.60;90.70;;;;;;5033197;28;20430;-48
2022/10/06 12:32:52;;;;;;;8.53;1.73;;;18.50;90.50;;;;;;5033492;28;20427;-46
2022/10/06 12:35:31;;;;;;;6.43;2.13;;;18.60;90.30;;;;;;5033666;28;20489;-46
2022/10/06 12:38:03;;;;;;;9.30;2.60;;;18.60;90.10;;;;;;5033550;28;20486;-45
2022/10/06 12:40:53;;;;;;;3.57;1.80;;;18.60;90.00;;;;;;5033388;28;20544;-45
2022/10/06 12:43:33;;;;;;;8.03;1.83;;;18.70;89.40;;;;;;5033717;28;20903;-46
2022/10/06 12:46:06;;;;;;;5.67;2.03;;;18.80;88.90;;;;;;5033655;28;20432;-46
2022/10/06 12:48:39;;;;;;;5.47;1.60;;;18.20;87.90;;;;;;5032330;28;20486;-45
2022/10/06 12:51:17;;;;;;;8.13;2.10;;;18.60;87.80;;;;;;5033334;28;20455;-45
2022/10/06 12:53:51;;;;;;;6.63;2.70;;;18.30;87.00;;;;;;5034161;28;20529;-45
2022/10/06 12:56:27;;;;;;;5.33;1.73;;;18.50;87.30;;;;;;5033644;28;20942;-48
2022/10/06 12:58:57;;;;;;;14.00;2.60;;;18.70;86.70;;;;;;5032967;28;20437;-46
2022/10/06 13:01:25;;;;;;;7.40;1.77;;;18.40;86.60;;;;;;5033787;28;20799;-45
2022/10/06 13:03:54;;;;;;;8.43;2.40;;;18.40;86.00;;;;;;5033063;28;20451;-44
2022/10/06 13:06:22;;;;;;;6.60;2.30;;;18.10;85.90;;;;;;5033074;28;20637;-46
2022/10/06 13:09:04;;;;;;;6.13;1.67;;;18.50;86.60;;;;;;5033437;28;20529;-47
2022/10/06 13:11:31;;;;;;;7.00;1.80;;;18.80;86.50;;;;;;5032597;28;21055;-45
2022/10/06 13:14:08;;;;;;;10.50;2.27;;;18.30;86.10;;;;;;5033437;28;20430;-45
2022/10/06 13:16:39;;;;;;;7.20;2.20;;;18.30;86.00;;;;;;5032736;28;20470;-48
2022/10/06 13:19:15;;;;;;;7.10;1.80;;;18.30;86.40;;;;;;5031884;28;20455;-45